Time;durP1;ratioP1;P1;durP2;ratioP2;P2;SDS_P1;SDS_P2;PMS_P1;PMS_P2;Temp;Humidity;BMP_temperature;BMP_pressure;BME280_temperature;BME280_humidity;BME280_pressure;Samples;Min_cycle;Max_cycle;Signal;HPM_P1;HPM_P2
2023/05/14 00:01:06;;;;;;;17.20;7.60;;;;;;;-128.00;-1.00;-1.00;97864;285;1003442;-33
2023/05/14 00:03:32;;;;;;;23.20;10.00;;;;;;;-128.00;-1.00;-1.00;97947;296;1004399;-31
2023/05/14 00:05:58;;;;;;;31.60;11.00;;;;;;;-128.00;-1.00;-1.00;97803;296;1003273;-29
2023/05/14 00:08:23;;;;;;;21.60;9.60;;;;;;;-128.00;-1.00;-1.00;97835;296;1004254;-30
2023/05/14 00:10:49;;;;;;;43.30;13.90;;;;;;;-128.00;-1.00;-1.00;97752;297;1002788;-29
2023/05/14 00:13:15;;;;;;;32.20;12.80;;;;;;;-128.00;-1.00;-1.00;97813;298;1004534;-33
2023/05/14 00:15:40;;;;;;;20.40;8.60;;;;;;;-128.00;-1.00;-1.00;97813;296;1003479;-35
2023/05/14 00:18:06;;;;;;;13.20;8.00;;;;;;;-128.00;-1.00;-1.00;97821;296;1003656;-30
2023/05/14 00:20:31;;;;;;;13.50;7.00;;;;;;;-128.00;-1.00;-1.00;97932;296;1003121;-34
2023/05/14 00:22:57;;;;;;;14.50;7.90;;;;;;;-128.00;-1.00;-1.00;97749;286;1003576;-29
2023/05/14 00:25:23;;;;;;;11.80;6.40;;;;;;;-128.00;-1.00;-1.00;97907;296;1003827;-33
2023/05/14 00:27:49;;;;;;;16.50;8.40;;;;;;;-128.00;-1.00;-1.00;97824;296;1003065;-33
2023/05/14 00:30:14;;;;;;;16.80;8.30;;;;;;;-128.00;-1.00;-1.00;97769;296;1003280;-37
2023/05/14 00:32:40;;;;;;;65.30;25.20;;;;;;;-128.00;-1.00;-1.00;97794;296;1004392;-37
2023/05/14 00:35:06;;;;;;;38.20;17.10;;;;;;;-128.00;-1.00;-1.00;97798;296;1004367;-34
2023/05/14 00:37:31;;;;;;;22.30;11.30;;;;;;;-128.00;-1.00;-1.00;97923;296;1004042;-28
2023/05/14 00:39:57;;;;;;;18.90;11.10;;;;;;;-128.00;-1.00;-1.00;97836;296;1003101;-35
2023/05/14 00:42:23;;;;;;;25.80;12.30;;;;;;;-128.00;-1.00;-1.00;97791;296;1004334;-34
2023/05/14 00:44:49;;;;;;;17.90;10.30;;;;;;;-128.00;-1.00;-1.00;97803;296;1003396;-35
2023/05/14 00:47:14;;;;;;;13.50;7.90;;;;;;;-128.00;-1.00;-1.00;97918;297;1004298;-34
2023/05/14 00:49:41;;;;;;;11.10;7.40;;;;;;;-128.00;-1.00;-1.00;97880;296;1003244;-29
2023/05/14 00:52:06;;;;;;;15.00;8.10;;;;;;;-128.00;-1.00;-1.00;97800;296;1003218;-30
2023/05/14 00:54:32;;;;;;;9.10;6.80;;;;;;;-128.00;-1.00;-1.00;97803;297;1003640;-30
2023/05/14 00:56:57;;;;;;;17.10;9.40;;;;;;;-128.00;-1.00;-1.00;97869;297;1002829;-35
2023/05/14 00:59:23;;;;;;;13.10;8.60;;;;;;;-128.00;-1.00;-1.00;97779;297;1002588;-33
2023/05/14 01:01:49;;;;;;;15.80;10.70;;;;;;;-128.00;-1.00;-1.00;97834;297;1004060;-29
2023/05/14 01:04:15;;;;;;;16.40;8.80;;;;;;;-128.00;-1.00;-1.00;97818;297;1003490;-29
2023/05/14 01:07:03;;;;;;;14.10;8.90;;;;;;;-128.00;-1.00;-1.00;97853;297;1003717;-31
2023/05/14 01:09:35;;;;;;;19.20;9.00;;;;;;;-128.00;-1.00;-1.00;97879;297;1003285;-34
2023/05/14 01:12:14;;;;;;;16.40;8.60;;;;;;;-128.00;-1.00;-1.00;97732;297;1003121;-33
2023/05/14 01:14:54;;;;;;;12.50;7.60;;;;;;;-128.00;-1.00;-1.00;97717;297;1002688;-32
2023/05/14 01:17:21;;;;;;;12.30;7.80;;;;;;;-128.00;-1.00;-1.00;97739;297;1003588;-38
2023/05/14 01:19:48;;;;;;;15.50;9.20;;;;;;;-128.00;-1.00;-1.00;97796;297;1004656;-30
2023/05/14 01:22:13;;;;;;;21.50;9.20;;;;;;;-128.00;-1.00;-1.00;97813;297;1002758;-32
2023/05/14 01:24:39;;;;;;;15.50;9.20;;;;;;;-128.00;-1.00;-1.00;97836;297;1004138;-30
2023/05/14 01:27:13;;;;;;;14.10;8.40;;;;;;;-128.00;-1.00;-1.00;97850;297;1003154;-29
2023/05/14 01:29:40;;;;;;;11.90;7.80;;;;;;;-128.00;-1.00;-1.00;97820;297;1003324;-34
2023/05/14 01:32:06;;;;;;;13.70;8.20;;;;;;;-128.00;-1.00;-1.00;97971;297;1003836;-29
2023/05/14 01:34:32;;;;;;;14.30;8.70;;;;;;;-128.00;-1.00;-1.00;97767;297;1004807;-29
2023/05/14 01:36:57;;;;;;;28.30;9.90;;;;;;;-128.00;-1.00;-1.00;97800;297;1003087;-31
2023/05/14 01:39:23;;;;;;;11.70;7.70;;;;;;;-128.00;-1.00;-1.00;97825;297;1003314;-35
2023/05/14 01:41:49;;;;;;;20.00;8.30;;;;;;;-128.00;-1.00;-1.00;97841;297;1002779;-29
2023/05/14 01:44:14;;;;;;;12.20;8.00;;;;;;;-128.00;-1.00;-1.00;97924;297;1003063;-31
2023/05/14 01:46:40;;;;;;;12.20;9.10;;;;;;;-128.00;-1.00;-1.00;97896;297;1003976;-34
2023/05/14 01:49:06;;;;;;;12.00;10.00;;;;;;;-128.00;-1.00;-1.00;97909;297;1004726;-30
2023/05/14 01:51:31;;;;;;;11.00;7.50;;;;;;;-128.00;-1.00;-1.00;97837;297;1003702;-33
2023/05/14 01:53:57;;;;;;;16.40;8.70;;;;;;;-128.00;-1.00;-1.00;97751;297;1004331;-29
2023/05/14 01:56:22;;;;;;;10.50;8.50;;;;;;;-128.00;-1.00;-1.00;97817;297;1003760;-33
2023/05/14 01:58:48;;;;;;;9.00;7.20;;;;;;;-128.00;-1.00;-1.00;97822;298;1003264;-29
2023/05/14 02:01:14;;;;;;;12.20;8.70;;;;;;;-128.00;-1.00;-1.00;97811;297;1003092;-29
2023/05/14 02:03:40;;;;;;;12.00;8.70;;;;;;;-128.00;-1.00;-1.00;97936;297;1002792;-29
2023/05/14 02:06:06;;;;;;;15.00;9.60;;;;;;;-128.00;-1.00;-1.00;97717;297;1002862;-32
2023/05/14 02:08:31;;;;;;;18.40;10.20;;;;;;;-128.00;-1.00;-1.00;97928;297;1003151;-32
2023/05/14 02:10:57;;;;;;;16.10;10.00;;;;;;;-128.00;-1.00;-1.00;97872;297;1004084;-30
2023/05/14 02:13:24;;;;;;;19.20;10.00;;;;;;;-128.00;-1.00;-1.00;97743;297;1002770;-34
2023/05/14 02:15:50;;;;;;;15.20;9.00;;;;;;;-128.00;-1.00;-1.00;97838;297;1002798;-30
2023/05/14 02:18:16;;;;;;;13.30;9.20;;;;;;;-128.00;-1.00;-1.00;97825;297;1005067;-33
2023/05/14 02:20:41;;;;;;;12.70;9.50;;;;;;;-128.00;-1.00;-1.00;97821;298;1003387;-29
2023/05/14 02:23:07;;;;;;;17.40;8.60;;;;;;;-128.00;-1.00;-1.00;97749;297;1003208;-34
2023/05/14 02:25:32;;;;;;;20.50;10.30;;;;;;;-128.00;-1.00;-1.00;97837;297;1003193;-34
2023/05/14 02:27:58;;;;;;;16.80;8.30;;;;;;;-128.00;-1.00;-1.00;97769;297;1004839;-30
2023/05/14 02:30:24;;;;;;;14.80;9.40;;;;;;;-128.00;-1.00;-1.00;97839;296;1003446;-30
2023/05/14 02:32:49;;;;;;;17.80;10.60;;;;;;;-128.00;-1.00;-1.00;97831;297;1003215;-29
2023/05/14 02:35:15;;;;;;;23.40;9.70;;;;;;;-128.00;-1.00;-1.00;97761;297;1002624;-32
2023/05/14 02:37:41;;;;;;;19.50;10.10;;;;;;;-128.00;-1.00;-1.00;97862;298;1004184;-38
2023/05/14 02:40:07;;;;;;;24.00;11.20;;;;;;;-128.00;-1.00;-1.00;97712;298;1002897;-35
2023/05/14 02:42:33;;;;;;;19.70;10.30;;;;;;;-128.00;-1.00;-1.00;97910;297;1004699;-32
2023/05/14 02:44:59;;;;;;;13.00;8.90;;;;;;;-128.00;-1.00;-1.00;97883;297;1002430;-33
2023/05/14 02:47:24;;;;;;;20.00;9.50;;;;;;;-128.00;-1.00;-1.00;97720;287;1003388;-33
2023/05/14 02:49:50;;;;;;;8.00;5.50;;;;;;;-128.00;-1.00;-1.00;97785;297;1003509;-34
2023/05/14 02:52:16;;;;;;;13.40;9.70;;;;;;;-128.00;-1.00;-1.00;97868;297;1003013;-33
2023/05/14 02:54:41;;;;;;;13.30;8.10;;;;;;;-128.00;-1.00;-1.00;97896;297;1003496;-34
2023/05/14 02:57:07;;;;;;;12.30;6.70;;;;;;;-128.00;-1.00;-1.00;97735;297;1004511;-34
2023/05/14 02:59:33;;;;;;;10.30;6.30;;;;;;;-128.00;-1.00;-1.00;97883;285;1003269;-32
2023/05/14 03:01:58;;;;;;;15.90;9.90;;;;;;;-128.00;-1.00;-1.00;97852;298;1004425;-32
2023/05/14 03:04:24;;;;;;;25.40;13.30;;;;;;;-128.00;-1.00;-1.00;97768;297;1003381;-35
2023/05/14 03:06:50;;;;;;;19.40;12.10;;;;;;;-128.00;-1.00;-1.00;97815;297;1005079;-30
2023/05/14 03:09:15;;;;;;;19.10;12.50;;;;;;;-128.00;-1.00;-1.00;97638;297;1003151;-35
2023/05/14 03:11:41;;;;;;;28.30;14.70;;;;;;;-128.00;-1.00;-1.00;97827;297;1003934;-29
2023/05/14 03:14:06;;;;;;;28.20;14.90;;;;;;;-128.00;-1.00;-1.00;97829;297;1003677;-33
2023/05/14 03:16:32;;;;;;;41.20;14.20;;;;;;;-128.00;-1.00;-1.00;97824;297;1003736;-33
2023/05/14 03:18:57;;;;;;;21.20;14.70;;;;;;;-128.00;-1.00;-1.00;97740;297;1003947;-31
2023/05/14 03:21:23;;;;;;;31.00;17.40;;;;;;;-128.00;-1.00;-1.00;97825;297;1003744;-34
2023/05/14 03:23:49;;;;;;;25.10;16.40;;;;;;;-128.00;-1.00;-1.00;97874;297;1004440;-33
2023/05/14 03:26:15;;;;;;;28.10;15.30;;;;;;;-128.00;-1.00;-1.00;97799;297;1003686;-30
2023/05/14 03:28:40;;;;;;;26.50;14.20;;;;;;;-128.00;-1.00;-1.00;97835;297;1003136;-30
2023/05/14 03:31:06;;;;;;;27.20;13.10;;;;;;;-128.00;-1.00;-1.00;97805;297;1003106;-28
2023/05/14 03:33:31;;;;;;;25.20;13.60;;;;;;;-128.00;-1.00;-1.00;97850;297;1003229;-30
2023/05/14 03:35:57;;;;;;;22.70;12.90;;;;;;;-128.00;-1.00;-1.00;97815;297;1003310;-34
2023/05/14 03:38:22;;;;;;;19.00;11.50;;;;;;;-128.00;-1.00;-1.00;97918;297;1003044;-34
2023/05/14 03:40:48;;;;;;;19.00;12.30;;;;;;;-128.00;-1.00;-1.00;97851;297;1002815;-30
2023/05/14 03:43:13;;;;;;;13.60;10.80;;;;;;;-128.00;-1.00;-1.00;97807;297;1002906;-34
2023/05/14 03:45:39;;;;;;;23.40;11.60;;;;;;;-128.00;-1.00;-1.00;97861;297;1003104;-30
2023/05/14 03:48:05;;;;;;;22.90;14.50;;;;;;;-128.00;-1.00;-1.00;97939;297;1003147;-29
2023/05/14 03:50:31;;;;;;;21.30;12.30;;;;;;;-128.00;-1.00;-1.00;97649;287;1004260;-29
2023/05/14 03:52:56;;;;;;;15.80;10.50;;;;;;;-128.00;-1.00;-1.00;97848;297;1004540;-28
2023/05/14 03:55:22;;;;;;;14.30;10.00;;;;;;;-128.00;-1.00;-1.00;97862;297;1003702;-30
2023/05/14 03:57:48;;;;;;;15.60;9.70;;;;;;;-128.00;-1.00;-1.00;97782;297;1003234;-30
2023/05/14 04:00:14;;;;;;;32.10;12.30;;;;;;;-128.00;-1.00;-1.00;97886;297;1003260;-30
2023/05/14 04:02:40;;;;;;;21.00;10.80;;;;;;;-128.00;-1.00;-1.00;97818;298;1002687;-30
2023/05/14 04:05:06;;;;;;;28.70;14.50;;;;;;;-128.00;-1.00;-1.00;97675;286;1002571;-30
2023/05/14 04:07:33;;;;;;;21.30;12.70;;;;;;;-128.00;-1.00;-1.00;97817;297;1003298;-33
2023/05/14 04:09:59;;;;;;;19.40;10.70;;;;;;;-128.00;-1.00;-1.00;97850;297;1003206;-29
2023/05/14 04:12:25;;;;;;;24.30;9.50;;;;;;;-128.00;-1.00;-1.00;97795;297;1003153;-34
2023/05/14 04:14:51;;;;;;;13.20;9.00;;;;;;;-128.00;-1.00;-1.00;97845;297;1003165;-30
2023/05/14 04:17:17;;;;;;;14.80;8.90;;;;;;;-128.00;-1.00;-1.00;97826;297;1004936;-32
2023/05/14 04:19:42;;;;;;;17.30;10.70;;;;;;;-128.00;-1.00;-1.00;97892;297;1004053;-34
2023/05/14 04:22:08;;;;;;;12.10;8.90;;;;;;;-128.00;-1.00;-1.00;97805;297;1003899;-33
2023/05/14 04:24:34;;;;;;;15.20;8.30;;;;;;;-128.00;-1.00;-1.00;97722;297;1003918;-34
2023/05/14 04:27:00;;;;;;;14.30;9.30;;;;;;;-128.00;-1.00;-1.00;97846;297;1005569;-34
2023/05/14 04:29:25;;;;;;;19.90;9.60;;;;;;;-128.00;-1.00;-1.00;97864;297;1003703;-37
2023/05/14 04:31:51;;;;;;;19.10;10.60;;;;;;;-128.00;-1.00;-1.00;97881;297;1003223;-32
2023/05/14 04:34:16;;;;;;;17.60;9.80;;;;;;;-128.00;-1.00;-1.00;97804;297;1005259;-31
2023/05/14 04:36:42;;;;;;;15.20;10.00;;;;;;;-128.00;-1.00;-1.00;97797;297;1002808;-35
2023/05/14 05:18:26;;;;;;;13.20;5.90;;;;;;;-100.21;15.78;19947.93;98304;296;1543435;-38
2023/05/14 05:20:53;;;;;;;6.80;4.80;;;;;;;-128.00;-1.00;-1.00;97428;285;1003691;-29
2023/05/14 05:23:19;;;;;;;7.40;4.40;;;;;;;-128.00;-1.00;-1.00;97991;295;1003691;-33
2023/05/14 05:25:44;;;;;;;6.70;4.20;;;;;;;-128.00;-1.00;-1.00;97976;295;1003085;-34
2023/05/14 05:28:10;;;;;;;7.20;4.80;;;;;;;-128.00;-1.00;-1.00;97896;295;1003016;-34
2023/05/14 05:30:35;;;;;;;6.50;4.00;;;;;;;-128.00;-1.00;-1.00;97909;295;1002314;-30
2023/05/14 05:33:01;;;;;;;7.30;5.00;;;;;;;-128.00;-1.00;-1.00;98053;295;1004276;-29
2023/05/14 05:35:26;;;;;;;7.00;4.30;;;;;;;-128.00;-1.00;-1.00;97977;295;1003832;-31
2023/05/14 05:37:52;;;;;;;6.30;3.80;;;;;;;-128.00;-1.00;-1.00;97907;284;1003967;-30
2023/05/14 05:40:18;;;;;;;5.80;3.80;;;;;;;-128.00;-1.00;-1.00;97939;295;1003000;-35
2023/05/14 05:42:43;;;;;;;6.30;4.50;;;;;;;-128.00;-1.00;-1.00;97798;295;1003866;-35
2023/05/14 05:45:09;;;;;;;5.00;3.80;;;;;;;-128.00;-1.00;-1.00;97831;297;1003251;-30
2023/05/14 05:47:35;;;;;;;6.80;4.30;;;;;;;-128.00;-1.00;-1.00;97875;295;1004661;-31
2023/05/14 05:50:01;;;;;;;6.90;5.00;;;;;;;-128.00;-1.00;-1.00;97990;295;1004087;-35
2023/05/14 05:52:26;;;;;;;6.90;5.70;;;;;;;-128.00;-1.00;-1.00;97993;295;1004153;-37
2023/05/14 05:54:52;;;;;;;19.10;13.50;;;;;;;-128.00;-1.00;-1.00;97955;295;1004209;-30
2023/05/14 05:57:17;;;;;;;7.10;5.30;;;;;;;-128.00;-1.00;-1.00;97997;283;1002937;-34
2023/05/14 05:59:43;;;;;;;7.30;3.00;;;;;;;-128.00;-1.00;-1.00;97851;296;1002732;-35
2023/05/14 06:02:09;;;;;;;14.70;9.90;;;;;;;-128.00;-1.00;-1.00;97976;295;1002908;-30
2023/05/14 06:04:34;;;;;;;6.70;3.80;;;;;;;-128.00;-1.00;-1.00;97990;295;1004440;-36
2023/05/14 06:07:00;;;;;;;4.80;4.10;;;;;;;-128.00;-1.00;-1.00;97891;295;1004370;-32
2023/05/14 06:09:26;;;;;;;19.40;13.30;;;;;;;-128.00;-1.00;-1.00;97997;295;1004274;-35
2023/05/14 06:11:51;;;;;;;13.60;9.70;;;;;;;-128.00;-1.00;-1.00;98088;295;1003085;-31
2023/05/14 06:14:17;;;;;;;3.80;2.70;;;;;;;-128.00;-1.00;-1.00;97877;295;1003108;-37
2023/05/14 06:16:43;;;;;;;3.30;2.30;;;;;;;-128.00;-1.00;-1.00;97833;296;1002806;-34
2023/05/14 06:19:08;;;;;;;4.00;2.30;;;;;;;-128.00;-1.00;-1.00;97926;295;1003364;-32
2023/05/14 06:21:34;;;;;;;4.40;3.10;;;;;;;-128.00;-1.00;-1.00;97917;295;1003013;-32
2023/05/14 06:24:00;;;;;;;3.20;2.00;;;;;;;-128.00;-1.00;-1.00;97888;295;1003248;-31
2023/05/14 06:26:25;;;;;;;3.80;2.50;;;;;;;-128.00;-1.00;-1.00;97963;295;1002921;-35
2023/05/14 06:28:51;;;;;;;2.40;1.90;;;;;;;-128.00;-1.00;-1.00;97804;285;1004772;-32
2023/05/14 06:31:17;;;;;;;4.60;2.10;;;;;;;-128.00;-1.00;-1.00;97946;295;1003142;-31
2023/05/14 06:33:44;;;;;;;4.50;1.40;;;;;;;-128.00;-1.00;-1.00;97866;295;1003161;-32
2023/05/14 06:36:09;;;;;;;110.20;59.30;;;;;;;-128.00;-1.00;-1.00;97928;295;1002959;-36
2023/05/14 06:38:35;;;;;;;7.20;3.10;;;;;;;-128.00;-1.00;-1.00;97886;295;1003763;-35
2023/05/14 06:41:01;;;;;;;3.20;2.30;;;;;;;-128.00;-1.00;-1.00;97860;295;1003107;-35
2023/05/14 06:43:27;;;;;;;2.50;1.90;;;;;;;-128.00;-1.00;-1.00;97905;295;1003078;-31
2023/05/14 06:45:53;;;;;;;1.80;1.30;;;;;;;-128.00;-1.00;-1.00;97838;295;1003206;-35
2023/05/14 06:48:18;;;;;;;1.30;1.10;;;;;;;-128.00;-1.00;-1.00;97909;295;1003187;-34
2023/05/14 06:50:45;;;;;;;1.90;1.50;;;;;;;-128.00;-1.00;-1.00;97924;295;1004221;-37
2023/05/14 06:53:11;;;;;;;2.70;2.40;;;;;;;-128.00;-1.00;-1.00;97896;296;1004218;-30
2023/05/14 06:55:36;;;;;;;1.80;1.40;;;;;;;-128.00;-1.00;-1.00;97846;295;1003721;-33
2023/05/14 06:58:02;;;;;;;2.40;1.60;;;;;;;-128.00;-1.00;-1.00;97916;295;1003335;-31
2023/05/14 07:00:29;;;;;;;2.20;1.50;;;;;;;-128.00;-1.00;-1.00;98078;295;1003750;-30
2023/05/14 07:02:54;;;;;;;2.50;1.70;;;;;;;-128.00;-1.00;-1.00;97834;295;1003753;-31
2023/05/14 07:05:20;;;;;;;6.60;1.90;;;;;;;-128.00;-1.00;-1.00;97827;295;1003979;-35
2023/05/14 07:07:45;;;;;;;2.50;1.70;;;;;;;-128.00;-1.00;-1.00;97839;295;1002974;-37
2023/05/14 07:10:11;;;;;;;1.90;1.00;;;;;;;-128.00;-1.00;-1.00;97872;295;1002876;-36
2023/05/14 07:12:37;;;;;;;6.50;1.20;;;;;;;-128.00;-1.00;-1.00;97810;295;1003168;-34
2023/05/14 07:15:03;;;;;;;1.70;1.20;;;;;;;-128.00;-1.00;-1.00;97865;295;1002892;-40
2023/05/14 07:17:28;;;;;;;2.20;1.10;;;;;;;-128.00;-1.00;-1.00;97987;295;1003110;-36
2023/05/14 07:19:54;;;;;;;3.10;1.00;;;;;;;-128.00;-1.00;-1.00;97854;295;1003194;-31
2023/05/14 07:22:21;;;;;;;2.70;1.20;;;;;;;-128.00;-1.00;-1.00;97810;295;1003872;-36
2023/05/14 07:24:46;;;;;;;2.00;1.40;;;;;;;-128.00;-1.00;-1.00;97783;284;1003021;-35
2023/05/14 07:27:12;;;;;;;51.10;24.40;;;;;;;-128.00;-1.00;-1.00;97872;295;1004461;-35
2023/05/14 07:29:38;;;;;;;2.00;0.70;;;;;;;-128.00;-1.00;-1.00;97780;296;1004584;-32
2023/05/14 07:32:04;;;;;;;2.30;1.20;;;;;;;-128.00;-1.00;-1.00;97840;295;1003259;-32
2023/05/14 07:34:29;;;;;;;3.90;0.80;;;;;;;-128.00;-1.00;-1.00;97941;295;1003495;-31
2023/05/14 07:36:55;;;;;;;3.40;1.80;;;;;;;-128.00;-1.00;-1.00;97847;295;1003293;-35
2023/05/14 07:39:20;;;;;;;1.20;0.60;;;;;;;-128.00;-1.00;-1.00;97870;284;1004293;-35
2023/05/14 07:41:46;;;;;;;0.90;0.70;;;;;;;-128.00;-1.00;-1.00;97803;295;1003818;-32
2023/05/14 07:44:12;;;;;;;1.00;0.80;;;;;;;-128.00;-1.00;-1.00;97908;295;1004249;-39
2023/05/14 07:46:37;;;;;;;0.40;0.30;;;;;;;-128.00;-1.00;-1.00;97838;296;1004161;-33
2023/05/14 07:49:03;;;;;;;2.90;2.00;;;;;;;-128.00;-1.00;-1.00;97765;295;1003729;-32
2023/05/14 07:51:29;;;;;;;4.80;4.20;;;;;;;-128.00;-1.00;-1.00;97940;295;1003175;-36
2023/05/14 07:53:55;;;;;;;19.90;14.20;;;;;;;-128.00;-1.00;-1.00;97857;295;1003158;-34
2023/05/14 07:56:21;;;;;;;6.50;4.50;;;;;;;-128.00;-1.00;-1.00;97850;288;1003082;-31
2023/05/14 07:58:47;;;;;;;1.80;0.60;;;;;;;-128.00;-1.00;-1.00;97859;295;1003200;-32
2023/05/14 08:01:13;;;;;;;8.40;7.20;;;;;;;-128.00;-1.00;-1.00;97846;295;1003107;-32
2023/05/14 08:03:39;;;;;;;0.60;0.50;;;;;;;-128.00;-1.00;-1.00;97900;295;1003157;-35
2023/05/14 08:06:05;;;;;;;6.60;3.60;;;;;;;-128.00;-1.00;-1.00;97917;295;1003990;-36
2023/05/14 08:08:30;;;;;;;1.80;1.40;;;;;;;-128.00;-1.00;-1.00;97821;295;1003008;-30
2023/05/14 08:10:57;;;;;;;1.50;0.70;;;;;;;-128.00;-1.00;-1.00;97830;295;1002974;-32
2023/05/14 08:13:22;;;;;;;0.50;0.50;;;;;;;-128.00;-1.00;-1.00;97970;295;1005676;-32
2023/05/14 08:15:48;;;;;;;1.80;0.70;;;;;;;-128.00;-1.00;-1.00;97880;296;1003427;-35
2023/05/14 08:18:14;;;;;;;5.80;4.40;;;;;;;-128.00;-1.00;-1.00;94430;295;3003127;-32
2023/05/14 08:20:40;;;;;;;1.30;0.80;;;;;;;-128.00;-1.00;-1.00;92650;295;4503452;-33
2023/05/14 08:23:08;;;;;;;1.00;0.60;;;;;;;-128.00;-1.00;-1.00;97986;295;1003777;-35
2023/05/14 08:25:34;;;;;;;1.30;0.70;;;;;;;-128.00;-1.00;-1.00;97853;295;1002986;-31
2023/05/14 08:28:00;;;;;;;0.60;0.50;;;;;;;-128.00;-1.00;-1.00;97823;295;1002978;-32
2023/05/14 08:30:26;;;;;;;0.70;0.50;;;;;;;-128.00;-1.00;-1.00;97838;296;1003041;-33
2023/05/14 08:32:52;;;;;;;34.40;15.90;;;;;;;-128.00;-1.00;-1.00;97862;295;1003732;-36
2023/05/14 08:35:17;;;;;;;17.00;9.20;;;;;;;-128.00;-1.00;-1.00;97988;295;1002826;-31
2023/05/14 08:37:43;;;;;;;15.00;7.30;;;;;;;-128.00;-1.00;-1.00;97894;295;1003025;-32
2023/05/14 08:40:09;;;;;;;1.50;0.90;;;;;;;-128.00;-1.00;-1.00;97841;295;1004486;-35
2023/05/14 08:42:39;;;;;;;0.40;0.40;;;;;;;-128.00;-1.00;-1.00;97804;295;1002869;-32
2023/05/14 08:45:05;;;;;;;13.60;9.20;;;;;;;-128.00;-1.00;-1.00;97888;295;1002635;-37
2023/05/14 08:47:31;;;;;;;4.00;2.40;;;;;;;-128.00;-1.00;-1.00;97928;295;1002734;-35
2023/05/14 08:50:04;;;;;;;3.20;2.20;;;;;;;-128.00;-1.00;-1.00;97803;295;1003796;-32
2023/05/14 08:52:30;;;;;;;4.00;1.60;;;;;;;-128.00;-1.00;-1.00;98029;295;1003213;-31
2023/05/14 08:54:57;;;;;;;2.90;0.90;;;;;;;-128.00;-1.00;-1.00;33072;295;7506029;-32
2023/05/14 08:57:25;;;;;;;1.10;0.90;;;;;;;-128.00;-1.00;-1.00;19118;288;7504773;-36
2023/05/14 08:59:51;;;;;;;0.80;0.50;;;;;;;-128.00;-1.00;-1.00;18463;288;7504481;-32
2023/05/14 09:02:19;;;;;;;1.00;0.60;;;;;;;-128.00;-1.00;-1.00;18467;320;7505681;-32
2023/05/14 09:04:45;;;;;;;1.60;1.40;;;;;;;-128.00;-1.00;-1.00;18436;288;7504392;-37
2023/05/14 09:07:11;;;;;;;2.10;1.20;;;;;;;-128.00;-1.00;-1.00;18866;288;7505551;-33
2023/05/14 09:09:37;;;;;;;2.10;1.80;;;;;;;-128.00;-1.00;-1.00;18882;295;7506096;-33
2023/05/14 09:12:03;;;;;;;4.90;2.20;;;;;;;-128.00;-1.00;-1.00;18872;288;7505810;-33
2023/05/14 09:14:29;;;;;;;0.80;0.50;;;;;;;-128.00;-1.00;-1.00;18883;340;7505194;-35
2023/05/14 09:16:56;;;;;;;2.50;1.40;;;;;;;-128.00;-1.00;-1.00;18902;295;7504542;-32
2023/05/14 09:19:22;;;;;;;1.60;0.50;;;;;;;-128.00;-1.00;-1.00;18882;288;7504994;-33
2023/05/14 09:21:48;;;;;;;2.70;1.80;;;;;;;-128.00;-1.00;-1.00;18875;320;7504707;-36
2023/05/14 09:24:20;;;;;;;0.80;0.50;;;;;;;-128.00;-1.00;-1.00;18857;296;7504506;-31
2023/05/14 09:26:51;;;;;;;1.10;0.70;;;;;;;-128.00;-1.00;-1.00;18463;288;7506959;-31
2023/05/14 09:29:17;;;;;;;3.10;1.60;;;;;;;-128.00;-1.00;-1.00;18485;295;7504993;-32
2023/05/14 09:31:43;;;;;;;5.20;0.90;;;;;;;-128.00;-1.00;-1.00;19064;288;7504493;-35
2023/05/14 09:34:10;;;;;;;5.60;3.60;;;;;;;-128.00;-1.00;-1.00;18887;288;7506221;-36
2023/05/14 09:36:35;;;;;;;7.30;5.60;;;;;;;-128.00;-1.00;-1.00;19024;348;7503915;-37
2023/05/14 09:39:04;;;;;;;2.30;0.70;;;;;;;-128.00;-1.00;-1.00;49814;288;7504850;-30
2023/05/14 09:41:30;;;;;;;50.10;31.90;;;;;;;-128.00;-1.00;-1.00;97867;295;1003664;-33
2023/05/14 09:43:56;;;;;;;20.40;13.40;;;;;;;-128.00;-1.00;-1.00;97746;297;1003452;-32
2023/05/14 09:46:22;;;;;;;1.60;0.60;;;;;;;-128.00;-1.00;-1.00;97904;295;1003311;-36
2023/05/14 09:48:48;;;;;;;22.00;16.00;;;;;;;-128.00;-1.00;-1.00;97976;295;1003548;-32
2023/05/14 09:51:16;;;;;;;2.30;1.50;;;;;;;-128.00;-1.00;-1.00;97850;295;1003336;-32
2023/05/14 09:53:45;;;;;;;3.20;1.00;;;;;;;-128.00;-1.00;-1.00;97857;295;1003400;-36
2023/05/14 09:56:10;;;;;;;0.60;0.50;;;;;;;-128.00;-1.00;-1.00;97766;297;1003223;-36
2023/05/14 09:58:36;;;;;;;0.90;0.50;;;;;;;-128.00;-1.00;-1.00;97896;295;1003383;-31
2023/05/14 10:01:02;;;;;;;3.60;2.70;;;;;;;-128.00;-1.00;-1.00;97799;295;1003881;-35
2023/05/14 10:03:29;;;;;;;1.90;1.70;;;;;;;-128.00;-1.00;-1.00;97825;295;1004041;-30
2023/05/14 10:05:56;;;;;;;1.20;0.60;;;;;;;-128.00;-1.00;-1.00;97899;295;1004919;-32
2023/05/14 10:08:34;;;;;;;4.10;0.60;;;;;;;-128.00;-1.00;-1.00;97932;297;1002872;-31
2023/05/14 10:11:05;;;;;;;0.90;0.50;;;;;;;-128.00;-1.00;-1.00;97820;295;1003083;-45
2023/05/14 10:13:36;;;;;;;161.70;98.40;;;;;;;-128.00;-1.00;-1.00;97864;295;1004545;-35
2023/05/14 10:16:10;;;;;;;3.10;1.40;;;;;;;-128.00;-1.00;-1.00;97795;285;1004353;-35
2023/05/14 10:18:47;;;;;;;7.40;5.00;;;;;;;-128.00;-1.00;-1.00;50140;288;6796427;-34
2023/05/14 10:21:13;;;;;;;2.10;0.60;;;;;;;-128.00;-1.00;-1.00;19828;295;7505171;-36
2023/05/14 10:23:41;;;;;;;6.40;6.00;;;;;;;-128.00;-1.00;-1.00;26582;297;7504652;-38
2023/05/14 10:26:07;;;;;;;1.50;1.30;;;;;;;-128.00;-1.00;-1.00;73593;295;7503926;-35
2023/05/14 10:28:33;;;;;;;1.50;1.30;;;;;;;-128.00;-1.00;-1.00;35455;295;7504622;-36
2023/05/14 10:30:59;;;;;;;1.30;0.50;;;;;;;-128.00;-1.00;-1.00;18479;296;7504403;-32
2023/05/14 10:33:25;;;;;;;0.80;0.70;;;;;;;-128.00;-1.00;-1.00;18471;295;7504531;-35
2023/05/14 10:36:00;;;;;;;1.30;0.90;;;;;;;-128.00;-1.00;-1.00;19605;288;7503930;-31
2023/05/14 10:38:31;;;;;;;3.30;1.30;;;;;;;-128.00;-1.00;-1.00;18534;336;7504451;-31
2023/05/14 10:41:16;;;;;;;3.50;0.90;;;;;;;-128.00;-1.00;-1.00;18553;288;7505008;-35
2023/05/14 10:43:42;;;;;;;1.30;0.90;;;;;;;-128.00;-1.00;-1.00;18454;295;7504800;-35
2023/05/14 10:46:10;;;;;;;1.30;0.70;;;;;;;-128.00;-1.00;-1.00;18899;295;7505982;-35
2023/05/14 10:48:38;;;;;;;4.10;0.80;;;;;;;-128.00;-1.00;-1.00;18854;295;7504429;-35
2023/05/14 10:51:03;;;;;;;1.70;1.00;;;;;;;-128.00;-1.00;-1.00;18456;288;7504488;-35
2023/05/14 10:53:32;;;;;;;3.60;1.30;;;;;;;-128.00;-1.00;-1.00;18891;295;7505419;-31
2023/05/14 10:56:03;;;;;;;0.90;0.70;;;;;;;-128.00;-1.00;-1.00;18480;288;7506097;-31
2023/05/14 10:58:31;;;;;;;1.50;1.10;;;;;;;-128.00;-1.00;-1.00;18630;296;7504889;-31
2023/05/14 11:00:57;;;;;;;1.20;1.00;;;;;;;-128.00;-1.00;-1.00;18467;295;7504707;-31
2023/05/14 11:03:23;;;;;;;1.70;1.00;;;;;;;-128.00;-1.00;-1.00;18474;288;7506016;-31
2023/05/14 11:05:51;;;;;;;2.00;0.90;;;;;;;-128.00;-1.00;-1.00;18903;295;7505331;-32
2023/05/14 11:50:13;;;;;;;3.80;1.00;;;;;;;-37.95;20.07;59683.26;99386;297;1002382;-31
2023/05/14 11:52:40;;;;;;;3.50;2.40;;;;;;;-128.00;-1.00;-1.00;97120;298;1006057;-31
2023/05/14 11:55:10;;;;;;;3.30;1.20;;;;;;;-128.00;-1.00;-1.00;97608;298;1004807;-31
2023/05/14 11:57:36;;;;;;;1.60;1.10;;;;;;;-128.00;-1.00;-1.00;97022;297;1004979;-31
2023/05/14 12:00:04;;;;;;;3.10;1.90;;;;;;;-128.00;-1.00;-1.00;97792;297;1003911;-32
2023/05/14 12:02:30;;;;;;;1.50;1.00;;;;;;;-128.00;-1.00;-1.00;97919;297;1003826;-35
2023/05/14 12:04:56;;;;;;;2.10;1.00;;;;;;;-128.00;-1.00;-1.00;97787;297;1004099;-35
2023/05/14 12:07:21;;;;;;;1.50;1.20;;;;;;;-128.00;-1.00;-1.00;97734;297;1003481;-35
2023/05/14 12:09:48;;;;;;;2.00;1.30;;;;;;;-128.00;-1.00;-1.00;97776;298;1002851;-32
2023/05/14 12:12:17;;;;;;;2.10;1.50;;;;;;;-128.00;-1.00;-1.00;97759;297;1003784;-36
2023/05/14 12:14:44;;;;;;;6.00;1.70;;;;;;;-128.00;-1.00;-1.00;97840;297;1003184;-32
2023/05/14 12:17:18;;;;;;;3.30;1.40;;;;;;;-128.00;-1.00;-1.00;97787;297;1004453;-34
2023/05/14 12:19:45;;;;;;;3.20;1.40;;;;;;;-128.00;-1.00;-1.00;97728;297;1004100;-37
2023/05/14 12:22:11;;;;;;;2.50;1.80;;;;;;;-128.00;-1.00;-1.00;97868;297;1004970;-31
2023/05/14 12:24:38;;;;;;;2.20;1.70;;;;;;;-128.00;-1.00;-1.00;97865;297;1003553;-32
2023/05/14 12:27:03;;;;;;;2.70;1.40;;;;;;;-128.00;-1.00;-1.00;95722;297;1005019;-34
2023/05/14 12:29:29;;;;;;;2.90;1.90;;;;;;;-128.00;-1.00;-1.00;97780;297;1004052;-32
2023/05/14 12:31:56;;;;;;;2.40;1.20;;;;;;;-128.00;-1.00;-1.00;97835;297;1003759;-31
2023/05/14 12:34:22;;;;;;;3.20;1.90;;;;;;;-128.00;-1.00;-1.00;97750;297;1003677;-32
2023/05/14 12:36:47;;;;;;;2.40;1.80;;;;;;;-128.00;-1.00;-1.00;97829;297;1003526;-32
2023/05/14 12:39:13;;;;;;;3.40;1.70;;;;;;;-128.00;-1.00;-1.00;97851;297;1003071;-31
2023/05/14 12:41:39;;;;;;;2.00;1.10;;;;;;;-128.00;-1.00;-1.00;97692;298;1005027;-33
2023/05/14 12:44:05;;;;;;;2.20;1.40;;;;;;;-128.00;-1.00;-1.00;97855;297;1003045;-32